Terminal Aerodrome Forecast
Issued by NWS

Home | Current Version | Previous Version | Text Only | Print | Product List | Glossary On
Versions: 1 2 3 4 5 6 7 8 9 10 11 12 13 14 15
000
FTUS41 KBOX 241725
TAFFMH
TAF
KFMH 241725Z 2418/2518 07007KT P6SM FEW015 BKN120
     FM250800 08007KT P6SM BKN020 OVC100
     FM251200 08011G21KT P6SM -SHRA OVC015
     FM251400 08012G23KT P6SM -SHRA OVC008=

USA.gov is the U.S. government's official web portal to all federal, state and local government web resources and services.